MDST/STI METAR and TAF weather

Enter ICAO airport designator
Station Type Date Time Source
MDST METAR 2020/09/27 16:00 UTC NOAA

MDST 271600Z 11007KT 070V160 9999 FEW026 31/23 Q1013


Station Type Date Time Source
MDST Decoded METAR 2020/09/27 16:00 UTC NOAA

Santiago, Dominican Republic (MDST) 19-27N 070-42W
Sep 27, 2020 - 12:00 PM EDT / 2020.09.27 1600 UTC
Wind: from the ESE (110 degrees) at 8 MPH (7 KT) (direction variable):0
Visibility: greater than 7 mile(s):0
Sky conditions: mostly clear
Temperature: 87 F (31 C)
Heat index: 93.9 F (34.4 C):1
Dew Point: 73 F (23 C)
Relative Humidity: 62%
Pressure (altimeter): 29.91 in. Hg (1013 hPa)
ob: MDST 271600Z 11007KT 070V160 9999 FEW026 31/23 Q1013
cycle: 16

Station Type Date Time Source
MDST TAF 2020/09/27 12:11 UTC NOAA

TAF MDST 271000Z 2712/2812 16010KT 9999 SCT025
BECMG 2712/2714 00000KT

Example: see airport list